sensor_id;sensor_type;location;lat;lon;timestamp;temperature;humidity
46890;DHT22;32625;51.080;16.970;2022-07-30T00:01:20;19.60;99.90
46890;DHT22;32625;51.080;16.970;2022-07-30T00:03:47;19.60;99.90
46890;DHT22;32625;51.080;16.970;2022-07-30T00:06:17;19.60;99.90
46890;DHT22;32625;51.080;16.970;2022-07-30T00:08:44;19.60;99.90
46890;DHT22;32625;51.080;16.970;2022-07-30T00:11:11;19.60;99.90
46890;DHT22;32625;51.080;16.970;2022-07-30T00:13:39;19.60;99.90
46890;DHT22;32625;51.080;16.970;2022-07-30T00:16:06;19.60;99.90
46890;DHT22;32625;51.080;16.970;2022-07-30T00:18:33;19.60;99.90
46890;DHT22;32625;51.080;16.970;2022-07-30T00:21:01;19.60;99.00
46890;DHT22;32625;51.080;16.970;2022-07-30T00:23:28;19.60;99.00
46890;DHT22;32625;51.080;16.970;2022-07-30T00:25:55;19.60;98.70
46890;DHT22;32625;51.080;16.970;2022-07-30T00:28:23;19.60;98.70
46890;DHT22;32625;51.080;16.970;2022-07-30T00:30:51;19.60;98.90
46890;DHT22;32625;51.080;16.970;2022-07-30T00:33:22;19.60;98.80
46890;DHT22;32625;51.080;16.970;2022-07-30T00:35:49;19.60;99.00
46890;DHT22;32625;51.080;16.970;2022-07-30T00:38:16;19.60;99.20
46890;DHT22;32625;51.080;16.970;2022-07-30T00:40:46;19.60;99.10
46890;DHT22;32625;51.080;16.970;2022-07-30T00:43:15;19.60;98.90
46890;DHT22;32625;51.080;16.970;2022-07-30T00:45:43;19.60;98.70
46890;DHT22;32625;51.080;16.970;2022-07-30T00:48:12;19.60;98.80
46890;DHT22;32625;51.080;16.970;2022-07-30T00:50:42;19.60;98.90
46890;DHT22;32625;51.080;16.970;2022-07-30T00:53:11;19.50;98.70
46890;DHT22;32625;51.080;16.970;2022-07-30T00:55:38;19.50;98.80
46890;DHT22;32625;51.080;16.970;2022-07-30T00:58:05;19.50;98.20
46890;DHT22;32625;51.080;16.970;2022-07-30T01:00:35;19.50;98.30
46890;DHT22;32625;51.080;16.970;2022-07-30T01:03:02;19.50;98.40
46890;DHT22;32625;51.080;16.970;2022-07-30T01:05:30;19.60;98.30
46890;DHT22;32625;51.080;16.970;2022-07-30T01:07:58;19.50;97.70
46890;DHT22;32625;51.080;16.970;2022-07-30T01:10:25;19.50;98.00
46890;DHT22;32625;51.080;16.970;2022-07-30T01:12:53;19.50;98.20
46890;DHT22;32625;51.080;16.970;2022-07-30T01:15:21;19.50;97.90
46890;DHT22;32625;51.080;16.970;2022-07-30T01:17:50;19.50;97.40
46890;DHT22;32625;51.080;16.970;2022-07-30T01:20:32;19.50;97.80
46890;DHT22;32625;51.080;16.970;2022-07-30T01:23:18;19.50;97.60
46890;DHT22;32625;51.080;16.970;2022-07-30T01:25:59;19.50;97.80
46890;DHT22;32625;51.080;16.970;2022-07-30T01:28:54;19.50;97.50
46890;DHT22;32625;51.080;16.970;2022-07-30T01:31:20;19.50;96.90
46890;DHT22;32625;51.080;16.970;2022-07-30T01:33:50;19.50;97.10
46890;DHT22;32625;51.080;16.970;2022-07-30T01:36:20;19.50;97.30
46890;DHT22;32625;51.080;16.970;2022-07-30T01:38:49;19.50;97.90
46890;DHT22;32625;51.080;16.970;2022-07-30T01:41:18;19.50;97.80
46890;DHT22;32625;51.080;16.970;2022-07-30T01:43:46;19.50;97.90
46890;DHT22;32625;51.080;16.970;2022-07-30T01:46:15;19.50;97.60
46890;DHT22;32625;51.080;16.970;2022-07-30T01:48:46;19.50;97.90
46890;DHT22;32625;51.080;16.970;2022-07-30T01:51:16;19.50;97.80
46890;DHT22;32625;51.080;16.970;2022-07-30T01:53:48;19.40;97.40
46890;DHT22;32625;51.080;16.970;2022-07-30T01:56:22;19.50;97.70
46890;DHT22;32625;51.080;16.970;2022-07-30T01:58:53;19.50;98.10
46890;DHT22;32625;51.080;16.970;2022-07-30T02:01:24;19.50;98.30
46890;DHT22;32625;51.080;16.970;2022-07-30T02:03:59;19.50;97.70
46890;DHT22;32625;51.080;16.970;2022-07-30T02:07:01;19.40;97.80
46890;DHT22;32625;51.080;16.970;2022-07-30T02:09:36;19.50;97.20
46890;DHT22;32625;51.080;16.970;2022-07-30T02:12:10;19.40;98.20
46890;DHT22;32625;51.080;16.970;2022-07-30T02:18:06;19.40;97.50
46890;DHT22;32625;51.080;16.970;2022-07-30T02:20:34;19.40;98.00
46890;DHT22;32625;51.080;16.970;2022-07-30T02:23:08;19.40;98.50
46890;DHT22;32625;51.080;16.970;2022-07-30T02:25:41;19.40;98.60
46890;DHT22;32625;51.080;16.970;2022-07-30T02:28:12;19.40;98.60
46890;DHT22;32625;51.080;16.970;2022-07-30T02:30:53;19.40;98.00
46890;DHT22;32625;51.080;16.970;2022-07-30T02:33:23;19.40;98.40
46890;DHT22;32625;51.080;16.970;2022-07-30T02:35:53;19.40;97.80
46890;DHT22;32625;51.080;16.970;2022-07-30T02:38:22;19.40;98.20
46890;DHT22;32625;51.080;16.970;2022-07-30T02:40:52;19.40;98.50
46890;DHT22;32625;51.080;16.970;2022-07-30T02:43:23;19.30;97.40
46890;DHT22;32625;51.080;16.970;2022-07-30T02:45:52;19.40;98.00
46890;DHT22;32625;51.080;16.970;2022-07-30T02:48:26;19.40;97.60
46890;DHT22;32625;51.080;16.970;2022-07-30T02:51:02;19.30;97.40
46890;DHT22;32625;51.080;16.970;2022-07-30T02:53:31;19.40;97.60
46890;DHT22;32625;51.080;16.970;2022-07-30T02:56:00;19.30;98.10
46890;DHT22;32625;51.080;16.970;2022-07-30T02:58:31;19.30;97.60
46890;DHT22;32625;51.080;16.970;2022-07-30T03:01:01;19.30;97.30
46890;DHT22;32625;51.080;16.970;2022-07-30T03:03:30;19.30;97.30
46890;DHT22;32625;51.080;16.970;2022-07-30T03:05:58;19.40;97.90
46890;DHT22;32625;51.080;16.970;2022-07-30T03:08:26;19.30;97.10
46890;DHT22;32625;51.080;16.970;2022-07-30T03:10:55;19.30;97.50
46890;DHT22;32625;51.080;16.970;2022-07-30T03:13:24;19.30;97.50
46890;DHT22;32625;51.080;16.970;2022-07-30T03:15:53;19.30;97.90
46890;DHT22;32625;51.080;16.970;2022-07-30T03:18:23;19.20;97.50
46890;DHT22;32625;51.080;16.970;2022-07-30T03:20:58;19.30;97.30
46890;DHT22;32625;51.080;16.970;2022-07-30T03:23:27;19.30;97.00
46890;DHT22;32625;51.080;16.970;2022-07-30T03:26:00;19.30;97.60
46890;DHT22;32625;51.080;16.970;2022-07-30T03:28:33;19.20;98.10
46890;DHT22;32625;51.080;16.970;2022-07-30T03:31:02;19.30;97.90
46890;DHT22;32625;51.080;16.970;2022-07-30T03:33:31;19.20;97.60
46890;DHT22;32625;51.080;16.970;2022-07-30T03:36:04;19.30;97.60
46890;DHT22;32625;51.080;16.970;2022-07-30T03:38:35;19.20;97.60
46890;DHT22;32625;51.080;16.970;2022-07-30T03:41:05;19.20;98.30
46890;DHT22;32625;51.080;16.970;2022-07-30T03:43:34;19.20;98.40
46890;DHT22;32625;51.080;16.970;2022-07-30T03:46:04;19.20;98.00
46890;DHT22;32625;51.080;16.970;2022-07-30T03:48:34;19.20;97.60
46890;DHT22;32625;51.080;16.970;2022-07-30T03:51:05;19.20;97.40
46890;DHT22;32625;51.080;16.970;2022-07-30T03:53:33;19.20;98.10
46890;DHT22;32625;51.080;16.970;2022-07-30T03:56:26;19.20;98.30
46890;DHT22;32625;51.080;16.970;2022-07-30T03:58:57;19.20;98.50
46890;DHT22;32625;51.080;16.970;2022-07-30T04:01:25;19.20;97.90
46890;DHT22;32625;51.080;16.970;2022-07-30T04:04:07;19.20;98.20
46890;DHT22;32625;51.080;16.970;2022-07-30T04:06:36;19.20;98.10
46890;DHT22;32625;51.080;16.970;2022-07-30T04:09:08;19.20;98.50
46890;DHT22;32625;51.080;16.970;2022-07-30T04:11:36;19.20;98.40
46890;DHT22;32625;51.080;16.970;2022-07-30T04:14:10;19.20;98.70
46890;DHT22;32625;51.080;16.970;2022-07-30T04:16:53;19.20;98.40
46890;DHT22;32625;51.080;16.970;2022-07-30T04:19:28;19.20;98.40
46890;DHT22;32625;51.080;16.970;2022-07-30T04:21:58;19.20;98.10
46890;DHT22;32625;51.080;16.970;2022-07-30T04:24:29;19.20;97.90
46890;DHT22;32625;51.080;16.970;2022-07-30T04:26:59;19.20;97.80
46890;DHT22;32625;51.080;16.970;2022-07-30T04:29:29;19.20;97.50
46890;DHT22;32625;51.080;16.970;2022-07-30T04:31:57;19.20;98.20
46890;DHT22;32625;51.080;16.970;2022-07-30T04:34:51;19.20;97.90
46890;DHT22;32625;51.080;16.970;2022-07-30T04:37:37;19.20;98.70
46890;DHT22;32625;51.080;16.970;2022-07-30T04:40:06;19.20;98.00
46890;DHT22;32625;51.080;16.970;2022-07-30T04:42:33;19.20;98.00
46890;DHT22;32625;51.080;16.970;2022-07-30T04:45:07;19.20;98.20
46890;DHT22;32625;51.080;16.970;2022-07-30T04:47:48;19.20;98.50
46890;DHT22;32625;51.080;16.970;2022-07-30T04:50:48;19.20;98.40
46890;DHT22;32625;51.080;16.970;2022-07-30T04:53:17;19.20;98.80
46890;DHT22;32625;51.080;16.970;2022-07-30T04:55:54;19.20;99.00
46890;DHT22;32625;51.080;16.970;2022-07-30T04:58:26;19.20;98.70
46890;DHT22;32625;51.080;16.970;2022-07-30T05:00:56;19.20;98.50
46890;DHT22;32625;51.080;16.970;2022-07-30T05:03:29;19.20;98.70
46890;DHT22;32625;51.080;16.970;2022-07-30T05:05:59;19.20;99.30
46890;DHT22;32625;51.080;16.970;2022-07-30T05:08:30;19.20;98.70
46890;DHT22;32625;51.080;16.970;2022-07-30T05:11:02;19.30;98.70
46890;DHT22;32625;51.080;16.970;2022-07-30T05:13:30;19.30;99.50
46890;DHT22;32625;51.080;16.970;2022-07-30T05:16:02;19.30;99.20
46890;DHT22;32625;51.080;16.970;2022-07-30T05:18:30;19.20;98.60
46890;DHT22;32625;51.080;16.970;2022-07-30T05:20:57;19.30;98.60
46890;DHT22;32625;51.080;16.970;2022-07-30T05:23:29;19.30;98.60
46890;DHT22;32625;51.080;16.970;2022-07-30T05:26:20;19.30;99.20
46890;DHT22;32625;51.080;16.970;2022-07-30T05:28:54;19.30;99.90
46890;DHT22;32625;51.080;16.970;2022-07-30T05:31:37;19.30;99.20
46890;DHT22;32625;51.080;16.970;2022-07-30T05:34:05;19.30;98.30
46890;DHT22;32625;51.080;16.970;2022-07-30T05:36:42;19.30;98.90
46890;DHT22;32625;51.080;16.970;2022-07-30T05:39:13;19.30;99.70
46890;DHT22;32625;51.080;16.970;2022-07-30T05:42:01;19.30;99.30
46890;DHT22;32625;51.080;16.970;2022-07-30T05:44:51;19.30;99.30
46890;DHT22;32625;51.080;16.970;2022-07-30T05:47:18;19.30;98.80
46890;DHT22;32625;51.080;16.970;2022-07-30T05:49:49;19.30;99.00
46890;DHT22;32625;51.080;16.970;2022-07-30T05:52:17;19.30;99.90
46890;DHT22;32625;51.080;16.970;2022-07-30T05:54:45;19.30;99.40
46890;DHT22;32625;51.080;16.970;2022-07-30T05:57:34;19.30;99.50
46890;DHT22;32625;51.080;16.970;2022-07-30T06:00:04;19.30;99.40
46890;DHT22;32625;51.080;16.970;2022-07-30T06:02:50;19.30;99.40
46890;DHT22;32625;51.080;16.970;2022-07-30T06:05:53;19.40;99.90
46890;DHT22;32625;51.080;16.970;2022-07-30T06:08:20;19.40;99.30
46890;DHT22;32625;51.080;16.970;2022-07-30T06:10:47;19.40;99.50
46890;DHT22;32625;51.080;16.970;2022-07-30T06:13:15;19.40;99.60
46890;DHT22;32625;51.080;16.970;2022-07-30T06:15:42;19.40;99.40
46890;DHT22;32625;51.080;16.970;2022-07-30T06:18:10;19.40;99.50
46890;DHT22;32625;51.080;16.970;2022-07-30T06:20:49;19.40;99.40
46890;DHT22;32625;51.080;16.970;2022-07-30T06:23:24;19.40;99.90
46890;DHT22;32625;51.080;16.970;2022-07-30T06:26:10;19.40;98.90
46890;DHT22;32625;51.080;16.970;2022-07-30T06:28:38;19.40;99.40
46890;DHT22;32625;51.080;16.970;2022-07-30T06:31:15;19.40;99.30
46890;DHT22;32625;51.080;16.970;2022-07-30T06:33:43;19.40;99.50
46890;DHT22;32625;51.080;16.970;2022-07-30T06:36:13;19.40;98.90
46890;DHT22;32625;51.080;16.970;2022-07-30T06:38:54;19.40;99.10
46890;DHT22;32625;51.080;16.970;2022-07-30T06:41:33;19.50;98.80
46890;DHT22;32625;51.080;16.970;2022-07-30T06:44:00;19.50;99.40
46890;DHT22;32625;51.080;16.970;2022-07-30T06:46:48;19.50;99.50
46890;DHT22;32625;51.080;16.970;2022-07-30T06:49:17;19.50;99.80
46890;DHT22;32625;51.080;16.970;2022-07-30T06:51:44;19.50;99.70
46890;DHT22;32625;51.080;16.970;2022-07-30T06:54:12;19.50;99.70
46890;DHT22;32625;51.080;16.970;2022-07-30T06:57:00;19.50;99.60
46890;DHT22;32625;51.080;16.970;2022-07-30T06:59:28;19.50;99.30
46890;DHT22;32625;51.080;16.970;2022-07-30T07:01:56;19.50;99.50
46890;DHT22;32625;51.080;16.970;2022-07-30T07:04:23;19.60;99.90
46890;DHT22;32625;51.080;16.970;2022-07-30T07:06:50;19.60;99.90
46890;DHT22;32625;51.080;16.970;2022-07-30T07:09:31;19.60;99.40
46890;DHT22;32625;51.080;16.970;2022-07-30T07:12:27;19.70;99.80
46890;DHT22;32625;51.080;16.970;2022-07-30T07:14:54;19.70;99.90
46890;DHT22;32625;51.080;16.970;2022-07-30T07:17:21;19.70;99.70
46890;DHT22;32625;51.080;16.970;2022-07-30T07:20:18;19.80;99.60
46890;DHT22;32625;51.080;16.970;2022-07-30T07:22:51;19.80;99.30
46890;DHT22;32625;51.080;16.970;2022-07-30T07:25:20;19.80;99.90
46890;DHT22;32625;51.080;16.970;2022-07-30T07:27:48;19.80;99.90
46890;DHT22;32625;51.080;16.970;2022-07-30T07:30:36;19.80;99.30
46890;DHT22;32625;51.080;16.970;2022-07-30T07:33:05;19.80;99.90
46890;DHT22;32625;51.080;16.970;2022-07-30T07:35:33;19.90;99.90
46890;DHT22;32625;51.080;16.970;2022-07-30T07:38:20;19.90;99.90
46890;DHT22;32625;51.080;16.970;2022-07-30T07:40:49;19.90;99.90
46890;DHT22;32625;51.080;16.970;2022-07-30T07:43:17;20.00;99.70
46890;DHT22;32625;51.080;16.970;2022-07-30T07:45:44;20.00;99.70
46890;DHT22;32625;51.080;16.970;2022-07-30T07:48:13;20.00;99.90
46890;DHT22;32625;51.080;16.970;2022-07-30T07:50:49;20.00;99.20
46890;DHT22;32625;51.080;16.970;2022-07-30T07:53:23;20.00;99.50
46890;DHT22;32625;51.080;16.970;2022-07-30T07:55:51;20.00;99.90
46890;DHT22;32625;51.080;16.970;2022-07-30T07:58:22;20.00;99.90
46890;DHT22;32625;51.080;16.970;2022-07-30T08:00:55;20.00;99.20
46890;DHT22;32625;51.080;16.970;2022-07-30T08:03:41;20.10;99.70
46890;DHT22;32625;51.080;16.970;2022-07-30T08:06:28;20.10;99.30
46890;DHT22;32625;51.080;16.970;2022-07-30T08:09:21;20.00;98.60
46890;DHT22;32625;51.080;16.970;2022-07-30T08:12:15;20.10;98.40
46890;DHT22;32625;51.080;16.970;2022-07-30T08:14:49;20.10;98.30
46890;DHT22;32625;51.080;16.970;2022-07-30T08:17:44;20.10;98.40
46890;DHT22;32625;51.080;16.970;2022-07-30T08:20:16;20.10;98.40
46890;DHT22;32625;51.080;16.970;2022-07-30T08:22:44;20.10;98.50
46890;DHT22;32625;51.080;16.970;2022-07-30T08:25:11;20.10;98.50
46890;DHT22;32625;51.080;16.970;2022-07-30T08:27:51;20.00;98.30
46890;DHT22;32625;51.080;16.970;2022-07-30T08:30:19;20.00;98.00
46890;DHT22;32625;51.080;16.970;2022-07-30T08:32:46;20.00;98.40
46890;DHT22;32625;51.080;16.970;2022-07-30T08:35:14;20.00;98.50
46890;DHT22;32625;51.080;16.970;2022-07-30T08:37:41;20.00;99.10
46890;DHT22;32625;51.080;16.970;2022-07-30T08:40:09;19.90;99.10
46890;DHT22;32625;51.080;16.970;2022-07-30T08:42:48;19.90;99.30
46890;DHT22;32625;51.080;16.970;2022-07-30T08:45:16;19.90;99.90
46890;DHT22;32625;51.080;16.970;2022-07-30T08:47:45;19.90;99.90
46890;DHT22;32625;51.080;16.970;2022-07-30T08:50:21;19.90;99.90
46890;DHT22;32625;51.080;16.970;2022-07-30T08:53:12;19.90;99.90
46890;DHT22;32625;51.080;16.970;2022-07-30T08:55:40;19.90;99.90
46890;DHT22;32625;51.080;16.970;2022-07-30T08:58:29;19.90;99.90
46890;DHT22;32625;51.080;16.970;2022-07-30T09:00:57;19.90;99.90
46890;DHT22;32625;51.080;16.970;2022-07-30T09:03:27;19.80;99.90
46890;DHT22;32625;51.080;16.970;2022-07-30T09:06:01;19.80;99.90
46890;DHT22;32625;51.080;16.970;2022-07-30T09:08:29;19.80;99.90
46890;DHT22;32625;51.080;16.970;2022-07-30T09:10:57;19.80;99.90
46890;DHT22;32625;51.080;16.970;2022-07-30T09:13:30;19.80;99.90
46890;DHT22;32625;51.080;16.970;2022-07-30T09:16:01;19.90;99.90
46890;DHT22;32625;51.080;16.970;2022-07-30T09:18:38;19.80;99.90
46890;DHT22;32625;51.080;16.970;2022-07-30T09:21:24;19.70;99.90
46890;DHT22;32625;51.080;16.970;2022-07-30T09:24:10;19.60;99.90
46890;DHT22;32625;51.080;16.970;2022-07-30T09:26:59;19.60;99.90
46890;DHT22;32625;51.080;16.970;2022-07-30T09:29:36;19.60;99.90
46890;DHT22;32625;51.080;16.970;2022-07-30T09:32:22;19.60;99.90
46890;DHT22;32625;51.080;16.970;2022-07-30T09:35:13;19.50;99.90
46890;DHT22;32625;51.080;16.970;2022-07-30T09:38:05;19.50;99.90
46890;DHT22;32625;51.080;16.970;2022-07-30T09:41:02;19.40;99.90
46890;DHT22;32625;51.080;16.970;2022-07-30T09:44:04;19.30;99.90
46890;DHT22;32625;51.080;16.970;2022-07-30T09:46:45;19.30;99.90
46890;DHT22;32625;51.080;16.970;2022-07-30T09:49:38;19.30;99.90
46890;DHT22;32625;51.080;16.970;2022-07-30T09:52:26;19.20;99.90
46890;DHT22;32625;51.080;16.970;2022-07-30T09:54:55;19.10;99.90
46890;DHT22;32625;51.080;16.970;2022-07-30T09:57:27;19.10;99.90
46890;DHT22;32625;51.080;16.970;2022-07-30T10:00:21;18.90;99.90
46890;DHT22;32625;51.080;16.970;2022-07-30T10:03:18;19.00;99.90
46890;DHT22;32625;51.080;16.970;2022-07-30T10:06:36;18.90;99.90
46890;DHT22;32625;51.080;16.970;2022-07-30T10:09:50;18.90;99.90
46890;DHT22;32625;51.080;16.970;2022-07-30T10:12:19;18.90;99.90
46890;DHT22;32625;51.080;16.970;2022-07-30T10:14:52;18.80;99.90
46890;DHT22;32625;51.080;16.970;2022-07-30T10:17:21;18.80;99.90
46890;DHT22;32625;51.080;16.970;2022-07-30T10:20:20;18.80;99.90
46890;DHT22;32625;51.080;16.970;2022-07-30T10:23:09;18.70;99.90
46890;DHT22;32625;51.080;16.970;2022-07-30T10:26:14;18.70;99.90
46890;DHT22;32625;51.080;16.970;2022-07-30T10:29:09;18.60;99.90
46890;DHT22;32625;51.080;16.970;2022-07-30T10:31:41;18.60;99.90
46890;DHT22;32625;51.080;16.970;2022-07-30T10:34:17;18.60;99.90
46890;DHT22;32625;51.080;16.970;2022-07-30T10:36:51;18.60;99.90
46890;DHT22;32625;51.080;16.970;2022-07-30T10:39:46;18.50;99.90
46890;DHT22;32625;51.080;16.970;2022-07-30T10:47:48;18.60;99.90
46890;DHT22;32625;51.080;16.970;2022-07-30T10:50:18;18.60;99.90
46890;DHT22;32625;51.080;16.970;2022-07-30T10:52:56;18.70;99.90
46890;DHT22;32625;51.080;16.970;2022-07-30T10:55:33;18.70;99.90
46890;DHT22;32625;51.080;16.970;2022-07-30T10:58:11;18.70;99.90
46890;DHT22;32625;51.080;16.970;2022-07-30T11:05:49;18.70;99.90
46890;DHT22;32625;51.080;16.970;2022-07-30T11:08:37;18.80;99.90
46890;DHT22;32625;51.080;16.970;2022-07-30T11:14:16;18.70;99.90
46890;DHT22;32625;51.080;16.970;2022-07-30T11:19:17;18.90;99.90
46890;DHT22;32625;51.080;16.970;2022-07-30T11:22:25;18.80;99.90
46890;DHT22;32625;51.080;16.970;2022-07-30T11:24:53;18.70;99.90
46890;DHT22;32625;51.080;16.970;2022-07-30T11:27:41;18.70;99.90
46890;DHT22;32625;51.080;16.970;2022-07-30T11:32:44;18.70;99.90
46890;DHT22;32625;51.080;16.970;2022-07-30T11:35:30;18.70;99.90
46890;DHT22;32625;51.080;16.970;2022-07-30T11:38:04;18.70;99.90
46890;DHT22;32625;51.080;16.970;2022-07-30T11:41:08;18.60;99.90
46890;DHT22;32625;51.080;16.970;2022-07-30T11:43:28;18.60;99.90
46890;DHT22;32625;51.080;16.970;2022-07-30T11:46:13;18.60;99.90
46890;DHT22;32625;51.080;16.970;2022-07-30T11:48:57;18.50;99.90
46890;DHT22;32625;51.080;16.970;2022-07-30T11:51:25;18.50;99.90
46890;DHT22;32625;51.080;16.970;2022-07-30T11:54:03;18.50;99.90
46890;DHT22;32625;51.080;16.970;2022-07-30T11:56:32;18.60;99.90
46890;DHT22;32625;51.080;16.970;2022-07-30T11:59:01;18.60;99.90
46890;DHT22;32625;51.080;16.970;2022-07-30T12:01:30;18.50;99.90
46890;DHT22;32625;51.080;16.970;2022-07-30T12:04:00;18.60;99.90
46890;DHT22;32625;51.080;16.970;2022-07-30T12:06:28;18.60;99.90
46890;DHT22;32625;51.080;16.970;2022-07-30T12:08:58;18.60;99.90
46890;DHT22;32625;51.080;16.970;2022-07-30T12:11:33;18.60;99.90
46890;DHT22;32625;51.080;16.970;2022-07-30T12:14:02;18.60;99.90
46890;DHT22;32625;51.080;16.970;2022-07-30T12:16:30;18.60;99.90
46890;DHT22;32625;51.080;16.970;2022-07-30T12:19:03;18.50;99.90
46890;DHT22;32625;51.080;16.970;2022-07-30T12:21:32;18.50;99.90
46890;DHT22;32625;51.080;16.970;2022-07-30T12:24:01;18.60;99.90
46890;DHT22;32625;51.080;16.970;2022-07-30T12:26:33;18.60;99.90
46890;DHT22;32625;51.080;16.970;2022-07-30T12:29:03;18.60;99.90
46890;DHT22;32625;51.080;16.970;2022-07-30T12:31:31;18.50;99.90
46890;DHT22;32625;51.080;16.970;2022-07-30T12:34:04;18.50;99.90
46890;DHT22;32625;51.080;16.970;2022-07-30T12:36:33;18.50;99.90
46890;DHT22;32625;51.080;16.970;2022-07-30T12:39:02;18.60;99.90
46890;DHT22;32625;51.080;16.970;2022-07-30T12:41:47;18.50;99.90
46890;DHT22;32625;51.080;16.970;2022-07-30T12:44:41;18.60;99.90
46890;DHT22;32625;51.080;16.970;2022-07-30T12:47:27;18.60;99.90
46890;DHT22;32625;51.080;16.970;2022-07-30T12:49:57;18.50;99.90
46890;DHT22;32625;51.080;16.970;2022-07-30T12:52:31;18.50;99.90
46890;DHT22;32625;51.080;16.970;2022-07-30T12:55:11;18.50;99.90
46890;DHT22;32625;51.080;16.970;2022-07-30T13:00:32;18.50;99.90
46890;DHT22;32625;51.080;16.970;2022-07-30T13:03:27;18.50;99.90
46890;DHT22;32625;51.080;16.970;2022-07-30T13:05:55;18.50;99.90
46890;DHT22;32625;51.080;16.970;2022-07-30T13:08:49;18.40;99.90
46890;DHT22;32625;51.080;16.970;2022-07-30T13:11:18;18.40;99.90
46890;DHT22;32625;51.080;16.970;2022-07-30T13:13:46;18.40;99.90
46890;DHT22;32625;51.080;16.970;2022-07-30T13:16:14;18.40;99.90
46890;DHT22;32625;51.080;16.970;2022-07-30T13:18:41;18.40;99.90
46890;DHT22;32625;51.080;16.970;2022-07-30T13:21:09;18.40;99.90
46890;DHT22;32625;51.080;16.970;2022-07-30T13:23:38;18.30;99.90
46890;DHT22;32625;51.080;16.970;2022-07-30T13:26:07;18.30;99.90
46890;DHT22;32625;51.080;16.970;2022-07-30T13:28:35;18.20;99.90
46890;DHT22;32625;51.080;16.970;2022-07-30T13:31:02;18.20;99.90
46890;DHT22;32625;51.080;16.970;2022-07-30T13:33:30;18.20;99.90
46890;DHT22;32625;51.080;16.970;2022-07-30T13:35:57;18.20;99.90
46890;DHT22;32625;51.080;16.970;2022-07-30T13:38:26;18.20;99.90
46890;DHT22;32625;51.080;16.970;2022-07-30T13:40:54;18.20;99.90
46890;DHT22;32625;51.080;16.970;2022-07-30T13:43:28;18.10;99.90
46890;DHT22;32625;51.080;16.970;2022-07-30T13:46:01;18.10;99.90
46890;DHT22;32625;51.080;16.970;2022-07-30T13:48:32;18.00;99.90
46890;DHT22;32625;51.080;16.970;2022-07-30T13:51:00;18.00;99.90
46890;DHT22;32625;51.080;16.970;2022-07-30T13:53:27;18.00;99.90
46890;DHT22;32625;51.080;16.970;2022-07-30T13:55:55;17.90;99.90
46890;DHT22;32625;51.080;16.970;2022-07-30T13:58:22;17.90;99.90
46890;DHT22;32625;51.080;16.970;2022-07-30T14:00:50;17.90;99.90
46890;DHT22;32625;51.080;16.970;2022-07-30T14:03:17;17.80;99.90
46890;DHT22;32625;51.080;16.970;2022-07-30T14:05:47;17.80;99.90
46890;DHT22;32625;51.080;16.970;2022-07-30T14:08:14;17.80;99.90
46890;DHT22;32625;51.080;16.970;2022-07-30T14:10:42;17.70;99.90
46890;DHT22;32625;51.080;16.970;2022-07-30T14:19:05;17.50;99.90
46890;DHT22;32625;51.080;16.970;2022-07-30T14:21:33;17.60;99.90
46890;DHT22;32625;51.080;16.970;2022-07-30T14:24:00;17.70;99.90
46890;DHT22;32625;51.080;16.970;2022-07-30T14:26:29;17.60;99.90
46890;DHT22;32625;51.080;16.970;2022-07-30T14:29:06;17.60;99.90
46890;DHT22;32625;51.080;16.970;2022-07-30T14:31:34;17.60;99.90
46890;DHT22;32625;51.080;16.970;2022-07-30T14:34:02;17.60;99.90
46890;DHT22;32625;51.080;16.970;2022-07-30T14:36:29;17.60;99.90
46890;DHT22;32625;51.080;16.970;2022-07-30T14:38:58;17.60;99.90
46890;DHT22;32625;51.080;16.970;2022-07-30T14:41:26;17.60;99.90
46890;DHT22;32625;51.080;16.970;2022-07-30T14:43:54;17.60;99.90
46890;DHT22;32625;51.080;16.970;2022-07-30T14:46:22;17.70;99.90
46890;DHT22;32625;51.080;16.970;2022-07-30T14:48:49;17.80;99.90
46890;DHT22;32625;51.080;16.970;2022-07-30T14:51:17;17.80;99.90
46890;DHT22;32625;51.080;16.970;2022-07-30T14:53:52;17.80;99.90
46890;DHT22;32625;51.080;16.970;2022-07-30T14:56:20;17.90;99.90
46890;DHT22;32625;51.080;16.970;2022-07-30T14:58:50;18.00;99.90
46890;DHT22;32625;51.080;16.970;2022-07-30T15:01:18;18.00;99.90
46890;DHT22;32625;51.080;16.970;2022-07-30T15:03:46;18.00;99.90
46890;DHT22;32625;51.080;16.970;2022-07-30T15:06:13;18.00;99.90
46890;DHT22;32625;51.080;16.970;2022-07-30T15:08:42;18.10;99.90
46890;DHT22;32625;51.080;16.970;2022-07-30T15:11:09;18.10;99.90
46890;DHT22;32625;51.080;16.970;2022-07-30T15:13:37;18.00;99.90
46890;DHT22;32625;51.080;16.970;2022-07-30T15:16:17;18.00;99.90
46890;DHT22;32625;51.080;16.970;2022-07-30T15:18:45;18.10;99.90
46890;DHT22;32625;51.080;16.970;2022-07-30T15:21:12;18.10;99.90
46890;DHT22;32625;51.080;16.970;2022-07-30T15:23:40;18.00;99.90
46890;DHT22;32625;51.080;16.970;2022-07-30T15:26:08;18.10;99.90
46890;DHT22;32625;51.080;16.970;2022-07-30T15:28:35;18.00;99.90
46890;DHT22;32625;51.080;16.970;2022-07-30T15:31:02;18.00;99.90
46890;DHT22;32625;51.080;16.970;2022-07-30T15:33:30;18.00;99.90
46890;DHT22;32625;51.080;16.970;2022-07-30T15:36:03;18.00;99.90
46890;DHT22;32625;51.080;16.970;2022-07-30T15:38:30;17.90;99.90
46890;DHT22;32625;51.080;16.970;2022-07-30T15:40:57;18.00;99.90
46890;DHT22;32625;51.080;16.970;2022-07-30T15:43:25;17.90;99.90
46890;DHT22;32625;51.080;16.970;2022-07-30T15:45:52;17.90;99.90
46890;DHT22;32625;51.080;16.970;2022-07-30T15:48:25;17.90;99.90
46890;DHT22;32625;51.080;16.970;2022-07-30T15:51:01;17.90;99.90
46890;DHT22;32625;51.080;16.970;2022-07-30T15:53:32;17.90;99.90
46890;DHT22;32625;51.080;16.970;2022-07-30T15:56:00;17.90;99.90
46890;DHT22;32625;51.080;16.970;2022-07-30T15:58:27;17.90;99.90
46890;DHT22;32625;51.080;16.970;2022-07-30T16:00:55;17.90;99.90
46890;DHT22;32625;51.080;16.970;2022-07-30T16:03:22;17.80;99.90
46890;DHT22;32625;51.080;16.970;2022-07-30T16:05:50;17.70;99.90
46890;DHT22;32625;51.080;16.970;2022-07-30T16:08:19;17.70;99.90
46890;DHT22;32625;51.080;16.970;2022-07-30T16:10:47;17.70;99.90
46890;DHT22;32625;51.080;16.970;2022-07-30T16:13:15;17.70;99.90
46890;DHT22;32625;51.080;16.970;2022-07-30T16:15:42;17.60;99.90
46890;DHT22;32625;51.080;16.970;2022-07-30T16:18:10;17.70;99.90
46890;DHT22;32625;51.080;16.970;2022-07-30T16:20:37;17.60;99.90
46890;DHT22;32625;51.080;16.970;2022-07-30T16:23:04;17.70;99.90
46890;DHT22;32625;51.080;16.970;2022-07-30T16:25:39;17.70;99.90